createdAt,value
2022-09-06T00:01:12.936Z,6.37
2022-09-06T00:03:41.527Z,5.45
2022-09-06T00:06:12.120Z,5.50
2022-09-06T00:08:40.525Z,5.30
2022-09-06T00:11:09.245Z,5.70
2022-09-06T00:13:37.652Z,5.30
2022-09-06T00:16:18.087Z,4.85
2022-09-06T00:18:46.722Z,4.40
2022-09-06T00:21:23.667Z,4.65
2022-09-06T00:23:52.787Z,4.82
2022-09-06T00:26:21.433Z,4.78
2022-09-06T00:28:49.411Z,4.37
2022-09-06T00:31:23.377Z,4.85
2022-09-06T00:33:51.653Z,5.45
2022-09-06T00:36:22.214Z,4.70
2022-09-06T00:38:49.989Z,5.50
2022-09-06T00:44:04.660Z,4.72
2022-09-06T00:46:33.703Z,5.43
2022-09-06T00:49:14.443Z,5.43
2022-09-06T00:51:43.652Z,5.45
2022-09-06T00:54:11.984Z,4.22
2022-09-06T00:56:43.849Z,4.78
2022-09-06T00:59:12.132Z,4.05
2022-09-06T01:01:40.206Z,3.92
2022-09-06T01:04:08.544Z,3.78
2022-09-06T01:06:53.124Z,4.12
2022-09-06T01:09:54.326Z,4.62
2022-09-06T01:12:55.980Z,4.18
2022-09-06T01:16:09.684Z,5.22
2022-09-06T01:21:23.071Z,3.83
2022-09-06T01:24:35.365Z,3.83
2022-09-06T01:29:58.458Z,4.15
2022-09-06T01:32:39.083Z,3.30
2022-09-06T01:35:41.363Z,3.92
2022-09-06T01:38:09.734Z,3.53
2022-09-06T01:40:37.983Z,3.75
2022-09-06T01:43:11.092Z,4.07
2022-09-06T01:45:51.165Z,4.35
2022-09-06T01:48:37.401Z,5.15
2022-09-06T01:51:30.583Z,5.93
2022-09-06T01:54:26.777Z,4.80
2022-09-06T01:57:14.077Z,4.95
2022-09-06T02:00:07.530Z,4.60
2022-09-06T02:03:08.184Z,3.62
2022-09-06T02:05:54.516Z,3.70
2022-09-06T02:08:45.185Z,3.20
2022-09-06T02:11:15.961Z,3.22
2022-09-06T02:14:12.819Z,3.17
2022-09-06T02:16:44.590Z,2.78
2022-09-06T02:19:23.805Z,2.83
2022-09-06T02:21:54.524Z,2.60
2022-09-06T02:24:30.987Z,2.55
2022-09-06T02:26:59.316Z,2.55
2022-09-06T02:29:27.765Z,2.10
2022-09-06T02:32:22.580Z,2.28
2022-09-06T02:34:53.433Z,2.62
2022-09-06T02:37:23.569Z,2.70
2022-09-06T02:39:52.085Z,2.75
2022-09-06T02:42:20.147Z,2.60
2022-09-06T02:44:48.058Z,2.50
2022-09-06T02:47:17.085Z,3.00
2022-09-06T02:49:44.868Z,4.32
2022-09-06T02:52:12.739Z,6.18
2022-09-06T02:54:40.978Z,6.28
2022-09-06T02:57:08.891Z,4.97
2022-09-06T02:59:36.680Z,4.45
2022-09-06T03:02:04.947Z,7.03
2022-09-06T03:04:33.228Z,2.97
2022-09-06T03:07:01.061Z,2.20
2022-09-06T03:09:29.553Z,2.00
2022-09-06T03:11:57.333Z,2.00
2022-09-06T03:14:25.131Z,2.20
2022-09-06T03:16:53.443Z,2.05
2022-09-06T03:19:21.982Z,2.80
2022-09-06T03:21:49.757Z,2.78
2022-09-06T03:24:17.994Z,3.37
2022-09-06T03:26:45.926Z,2.80
2022-09-06T03:29:13.819Z,3.10
2022-09-06T03:31:42.011Z,2.28
2022-09-06T03:34:11.209Z,3.05
2022-09-06T03:39:24.558Z,3.20
2022-09-06T03:41:52.417Z,3.53
2022-09-06T03:44:20.203Z,3.65
2022-09-06T03:46:48.466Z,3.70
2022-09-06T03:49:16.295Z,3.53
2022-09-06T03:51:44.200Z,3.05
2022-09-06T03:54:12.405Z,3.00
2022-09-06T03:56:40.274Z,3.30
2022-09-06T03:59:08.089Z,2.55
2022-09-06T04:01:36.213Z,2.90
2022-09-06T04:04:04.450Z,2.83
2022-09-06T04:06:32.194Z,2.80
2022-09-06T04:09:00.073Z,2.30
2022-09-06T04:11:30.642Z,2.70
2022-09-06T04:13:58.430Z,2.72
2022-09-06T04:16:26.305Z,2.62
2022-09-06T04:18:54.789Z,2.45
2022-09-06T04:21:22.654Z,2.75
2022-09-06T04:23:50.515Z,2.90
2022-09-06T04:26:18.910Z,3.03
2022-09-06T04:28:49.222Z,3.10
2022-09-06T04:31:17.004Z,3.30
2022-09-06T04:33:45.193Z,2.53
2022-09-06T04:36:13.693Z,3.12
2022-09-06T04:38:44.000Z,2.53
2022-09-06T04:41:16.018Z,3.08
2022-09-06T04:43:43.855Z,2.95
2022-09-06T04:46:23.006Z,3.95
2022-09-06T04:48:51.579Z,3.05
2022-09-06T04:51:20.220Z,3.53
2022-09-06T04:53:48.625Z,3.00
2022-09-06T04:56:19.919Z,3.08
2022-09-06T04:58:49.630Z,3.12
2022-09-06T05:01:17.979Z,3.90
2022-09-06T05:03:45.883Z,4.00
2022-09-06T05:06:21.155Z,3.12
2022-09-06T05:08:51.797Z,2.90
2022-09-06T05:11:20.159Z,3.22
2022-09-06T05:13:48.150Z,3.17
2022-09-06T05:16:16.012Z,2.40
2022-09-06T05:18:44.697Z,3.25
2022-09-06T05:21:12.620Z,2.62
2022-09-06T05:23:40.563Z,2.60
2022-09-06T05:26:08.971Z,2.20
2022-09-06T05:28:36.930Z,2.60
2022-09-06T05:31:26.314Z,2.35
2022-09-06T05:33:55.492Z,2.30
2022-09-06T05:36:23.870Z,2.30
2022-09-06T05:38:52.218Z,2.10
2022-09-06T05:41:21.004Z,2.40
2022-09-06T05:43:49.246Z,2.65
2022-09-06T05:46:17.941Z,2.35
2022-09-06T05:48:56.048Z,2.35
2022-09-06T05:51:24.574Z,2.70
2022-09-06T05:53:52.877Z,3.20
2022-09-06T05:56:22.620Z,2.97
2022-09-06T05:58:53.456Z,2.35
2022-09-06T06:01:30.556Z,3.08
2022-09-06T06:04:00.474Z,3.20
2022-09-06T06:06:35.374Z,3.67
2022-09-06T06:09:03.772Z,3.40
2022-09-06T06:11:31.682Z,3.00
2022-09-06T06:14:00.161Z,3.17
2022-09-06T06:16:29.301Z,3.22
2022-09-06T06:18:57.887Z,2.75
2022-09-06T06:21:28.429Z,2.75
2022-09-06T06:24:04.503Z,3.10
2022-09-06T06:26:35.134Z,2.80
2022-09-06T06:29:05.978Z,3.37
2022-09-06T06:31:34.258Z,3.20
2022-09-06T06:34:04.923Z,3.15
2022-09-06T06:36:35.713Z,3.33
2022-09-06T06:39:06.049Z,3.05
2022-09-06T06:41:34.419Z,2.83
2022-09-06T06:44:04.530Z,3.15
2022-09-06T06:46:37.384Z,3.08
2022-09-06T06:49:05.905Z,2.78
2022-09-06T06:51:39.613Z,3.03
2022-09-06T06:54:07.901Z,3.00
2022-09-06T06:56:38.170Z,3.20
2022-09-06T06:59:08.130Z,2.83
2022-09-06T07:01:37.426Z,2.50
2022-09-06T07:04:09.053Z,2.42
2022-09-06T07:12:25.844Z,1.83
2022-09-06T07:14:54.015Z,2.00
2022-09-06T07:17:21.862Z,2.17
2022-09-06T07:22:38.946Z,2.10
2022-09-06T07:25:09.027Z,2.20
2022-09-06T07:27:53.067Z,2.03
2022-09-06T07:30:21.512Z,2.15
2022-09-06T07:32:49.507Z,2.15
2022-09-06T07:35:17.577Z,2.10
2022-09-06T07:37:56.069Z,2.75
2022-09-06T07:40:29.449Z,2.20
2022-09-06T07:43:00.767Z,2.28
2022-09-06T07:45:31.788Z,2.80
2022-09-06T07:48:00.250Z,2.35
2022-09-06T07:50:47.730Z,1.95
2022-09-06T07:53:24.641Z,2.60
2022-09-06T07:55:57.237Z,2.30
2022-09-06T07:58:25.475Z,2.75
2022-09-06T08:00:53.400Z,4.10
2022-09-06T08:03:21.790Z,2.60
2022-09-06T08:11:30.726Z,2.25
2022-09-06T08:14:00.537Z,1.87
2022-09-06T08:16:30.209Z,2.37
2022-09-06T08:19:00.613Z,2.08
2022-09-06T08:21:32.401Z,2.62
2022-09-06T08:24:03.362Z,1.77
2022-09-06T08:26:33.740Z,2.20
2022-09-06T08:29:06.182Z,2.17
2022-09-06T08:31:35.634Z,1.70
2022-09-06T08:34:04.309Z,2.35
2022-09-06T08:36:33.192Z,2.40
2022-09-06T08:39:03.923Z,1.98
2022-09-06T08:42:00.542Z,1.85
2022-09-06T08:47:22.442Z,2.30
2022-09-06T08:50:03.083Z,2.78
2022-09-06T08:53:06.527Z,2.78
2022-09-06T08:55:47.174Z,4.22
2022-09-06T08:58:36.612Z,2.90
2022-09-06T09:01:10.865Z,2.30
2022-09-06T09:03:42.303Z,2.28
2022-09-06T09:06:10.949Z,2.22
2022-09-06T09:09:07.514Z,2.03
2022-09-06T09:11:36.862Z,1.98
2022-09-06T09:14:35.596Z,2.65
2022-09-06T09:17:16.290Z,3.12
2022-09-06T09:19:44.999Z,2.85
2022-09-06T09:22:18.149Z,2.80
2022-09-06T09:24:48.714Z,2.37
2022-09-06T09:27:20.335Z,2.55
2022-09-06T09:32:45.402Z,2.70
2022-09-06T09:35:18.648Z,2.50
2022-09-06T09:40:28.236Z,1.77
2022-09-06T09:43:09.429Z,2.20
2022-09-06T09:45:37.656Z,1.60
2022-09-06T09:48:28.427Z,1.90
2022-09-06T09:50:56.675Z,1.65
2022-09-06T09:53:25.203Z,2.65
2022-09-06T09:55:58.880Z,2.62
2022-09-06T09:58:35.925Z,2.58
2022-09-06T10:01:12.984Z,2.53
2022-09-06T10:09:35.334Z,1.40
2022-09-06T10:12:03.644Z,1.40
2022-09-06T10:14:46.987Z,1.60
2022-09-06T10:17:30.072Z,1.30
2022-09-06T10:20:03.835Z,1.30
2022-09-06T10:22:35.754Z,1.70
2022-09-06T10:25:13.039Z,1.85
2022-09-06T10:28:13.311Z,5.12
2022-09-06T10:31:27.540Z,1.60
2022-09-06T10:34:32.033Z,1.17
2022-09-06T10:37:25.512Z,1.52
2022-09-06T10:40:03.262Z,1.37
2022-09-06T10:42:50.932Z,1.85
2022-09-06T10:45:33.465Z,1.62
2022-09-06T10:48:14.741Z,1.48
2022-09-06T10:51:21.019Z,1.62
2022-09-06T10:53:53.899Z,1.60
2022-09-06T10:56:29.545Z,0.90
2022-09-06T11:02:11.429Z,1.75
2022-09-06T11:07:38.480Z,3.75
2022-09-06T11:10:08.106Z,2.20
2022-09-06T11:12:45.710Z,2.35
2022-09-06T11:15:15.746Z,4.12
2022-09-06T11:18:13.285Z,4.93
2022-09-06T11:20:59.349Z,4.12
2022-09-06T11:23:39.548Z,2.70
2022-09-06T11:26:30.983Z,1.80
2022-09-06T11:29:07.375Z,1.20
2022-09-06T11:34:58.047Z,2.00
2022-09-06T11:37:33.720Z,2.03
2022-09-06T11:40:31.166Z,1.70
2022-09-06T11:43:00.384Z,1.83
2022-09-06T11:45:49.799Z,1.33
2022-09-06T11:48:23.669Z,1.58
2022-09-06T11:50:54.547Z,2.33
2022-09-06T11:53:25.395Z,2.30
2022-09-06T11:56:25.391Z,3.00
2022-09-06T11:59:35.340Z,2.12
2022-09-06T12:02:27.455Z,2.72
2022-09-06T12:05:01.922Z,1.52
2022-09-06T12:07:32.752Z,1.92
2022-09-06T12:10:32.206Z,2.15
2022-09-06T12:13:00.113Z,2.08
2022-09-06T12:15:44.777Z,2.12
2022-09-06T12:18:47.685Z,1.90
2022-09-06T12:21:46.767Z,2.75
2022-09-06T12:24:36.576Z,2.03
2022-09-06T12:27:20.650Z,1.70
2022-09-06T12:30:04.670Z,2.20
2022-09-06T12:32:38.240Z,1.70
2022-09-06T12:38:03.295Z,1.40
2022-09-06T12:40:39.148Z,1.43
2022-09-06T12:43:11.329Z,1.30
2022-09-06T12:45:47.335Z,1.48
2022-09-06T12:48:39.345Z,1.52
2022-09-06T12:51:20.974Z,1.42
2022-09-06T12:53:59.218Z,1.60
2022-09-06T12:56:29.442Z,1.80
2022-09-06T12:59:23.933Z,1.02
2022-09-06T13:02:03.488Z,1.77
2022-09-06T13:04:49.056Z,1.60
2022-09-06T13:07:19.327Z,2.03
2022-09-06T13:09:52.285Z,1.42
2022-09-06T13:12:34.489Z,1.40
2022-09-06T13:15:14.338Z,1.40
2022-09-06T13:17:42.257Z,1.50
2022-09-06T13:20:25.491Z,0.90
2022-09-06T13:22:54.725Z,1.20
2022-09-06T13:25:25.389Z,1.20
2022-09-06T13:27:58.761Z,1.17
2022-09-06T13:30:43.219Z,1.12
2022-09-06T13:33:28.087Z,1.20
2022-09-06T13:36:11.428Z,1.15
2022-09-06T13:38:39.118Z,0.98
2022-09-06T13:41:27.126Z,1.50
2022-09-06T13:43:59.955Z,1.50
2022-09-06T13:46:28.190Z,1.40
2022-09-06T13:48:57.052Z,1.62
2022-09-06T13:51:25.244Z,1.58
2022-09-06T13:54:12.022Z,1.50
2022-09-06T13:56:41.075Z,1.40
2022-09-06T13:59:12.921Z,1.80
2022-09-06T14:01:43.371Z,1.50
2022-09-06T14:04:15.889Z,1.50
2022-09-06T14:06:44.003Z,1.20
2022-09-06T14:09:12.461Z,1.60
2022-09-06T14:11:42.042Z,1.27
2022-09-06T14:14:12.650Z,1.45
2022-09-06T14:16:40.599Z,1.77
2022-09-06T14:19:08.736Z,1.27
2022-09-06T14:21:37.417Z,1.60
2022-09-06T14:24:06.291Z,1.52
2022-09-06T14:26:36.328Z,1.73
2022-09-06T14:29:06.106Z,1.45
2022-09-06T14:31:36.899Z,1.42
2022-09-06T14:34:07.918Z,1.35
2022-09-06T14:36:35.808Z,1.55
2022-09-06T14:39:04.254Z,1.27
2022-09-06T14:41:32.656Z,1.90
2022-09-06T14:44:01.046Z,1.40
2022-09-06T14:46:30.146Z,1.15
2022-09-06T14:49:01.460Z,1.67
2022-09-06T14:51:30.549Z,1.25
2022-09-06T14:54:03.598Z,1.65
2022-09-06T14:56:31.872Z,1.27
2022-09-06T14:59:00.718Z,1.25
2022-09-06T15:01:37.078Z,1.60
2022-09-06T15:04:08.858Z,1.90
2022-09-06T15:06:40.389Z,2.28
2022-09-06T15:09:11.717Z,2.33
2022-09-06T15:11:48.579Z,2.10
2022-09-06T15:14:18.498Z,2.12
2022-09-06T15:16:52.021Z,2.10
2022-09-06T15:19:30.209Z,1.70
2022-09-06T15:21:58.669Z,1.40
2022-09-06T15:24:27.043Z,1.60
2022-09-06T15:26:55.451Z,1.85
2022-09-06T15:29:23.847Z,2.00
2022-09-06T15:31:52.112Z,2.35
2022-09-06T15:34:21.878Z,1.90
2022-09-06T15:36:50.845Z,2.08
2022-09-06T15:39:21.689Z,1.50
2022-09-06T15:41:51.910Z,2.30
2022-09-06T15:44:24.410Z,2.45
2022-09-06T15:47:00.406Z,2.37
2022-09-06T15:49:34.097Z,2.33
2022-09-06T15:52:03.236Z,2.78
2022-09-06T15:54:52.315Z,3.45
2022-09-06T15:57:20.485Z,5.03
2022-09-06T15:59:48.747Z,4.07
2022-09-06T16:02:16.691Z,2.78
2022-09-06T16:04:48.729Z,1.87
2022-09-06T16:07:16.644Z,2.28
2022-09-06T16:09:45.672Z,3.20
2022-09-06T16:12:14.045Z,2.30
2022-09-06T16:14:41.958Z,2.92
2022-09-06T16:17:12.074Z,3.08
2022-09-06T16:19:40.585Z,3.75
2022-09-06T16:22:08.847Z,3.37
2022-09-06T16:24:37.177Z,3.67
2022-09-06T16:27:05.207Z,3.25
2022-09-06T16:29:33.264Z,3.03
2022-09-06T16:32:01.519Z,3.50
2022-09-06T16:34:29.609Z,4.00
2022-09-06T16:36:57.785Z,9.63
2022-09-06T16:39:26.534Z,4.97
2022-09-06T16:41:54.464Z,7.00
2022-09-06T16:44:22.468Z,5.03
2022-09-06T16:46:51.087Z,12.45
2022-09-06T16:49:19.600Z,12.18
2022-09-06T16:51:48.919Z,9.98
2022-09-06T16:54:18.514Z,21.08
2022-09-06T16:56:46.685Z,13.95
2022-09-06T16:59:18.389Z,5.82
2022-09-06T17:01:47.630Z,5.40
2022-09-06T17:04:18.632Z,5.57
2022-09-06T17:06:47.165Z,4.07
2022-09-06T17:09:19.023Z,4.47
2022-09-06T17:11:50.408Z,5.85
2022-09-06T17:14:19.062Z,5.05
2022-09-06T17:17:05.572Z,4.47
2022-09-06T17:19:41.836Z,4.30
2022-09-06T17:22:13.708Z,5.22
2022-09-06T17:24:42.021Z,4.62
2022-09-06T17:27:10.614Z,4.90
2022-09-06T17:29:41.514Z,4.75
2022-09-06T17:32:10.675Z,4.72
2022-09-06T17:34:40.217Z,4.65
2022-09-06T17:37:08.809Z,5.40
2022-09-06T17:39:37.124Z,5.22
2022-09-06T17:42:05.719Z,6.50
2022-09-06T17:44:33.638Z,5.57
2022-09-06T17:47:18.912Z,6.12
2022-09-06T17:49:47.642Z,5.78
2022-09-06T17:52:15.574Z,5.32
2022-09-06T17:54:44.839Z,4.15
2022-09-06T17:57:13.116Z,4.25
2022-09-06T17:59:41.005Z,4.70
2022-09-06T18:02:09.180Z,4.07
2022-09-06T18:04:37.622Z,5.72
2022-09-06T18:07:05.748Z,6.35
2022-09-06T18:09:33.953Z,5.72
2022-09-06T18:12:02.544Z,5.18
2022-09-06T18:14:30.726Z,5.78
2022-09-06T18:17:01.564Z,4.55
2022-09-06T18:22:15.573Z,5.53
2022-09-06T18:24:44.444Z,6.07
2022-09-06T18:27:12.285Z,7.45
2022-09-06T18:29:40.163Z,5.55
2022-09-06T18:32:09.149Z,7.57
2022-09-06T18:34:37.519Z,5.78
2022-09-06T18:37:06.196Z,6.07
2022-09-06T18:39:34.533Z,6.40
2022-09-06T18:42:02.423Z,5.18
2022-09-06T18:44:34.938Z,3.67
2022-09-06T18:47:08.764Z,3.70
2022-09-06T18:49:40.543Z,4.10
2022-09-06T18:52:11.798Z,4.50
2022-09-06T18:54:39.920Z,4.55
2022-09-06T18:57:07.959Z,3.30
2022-09-06T18:59:36.234Z,6.22
2022-09-06T19:02:04.354Z,7.45
2022-09-06T19:04:32.258Z,5.40
2022-09-06T19:07:03.194Z,4.65
2022-09-06T19:09:31.350Z,4.20
2022-09-06T19:11:59.183Z,3.97
2022-09-06T19:14:45.669Z,3.20
2022-09-06T19:17:13.488Z,3.83
2022-09-06T19:19:41.736Z,3.60
2022-09-06T19:22:09.786Z,3.30
2022-09-06T19:24:39.509Z,3.33
2022-09-06T19:27:08.325Z,3.35
2022-09-06T19:29:36.409Z,2.60
2022-09-06T19:32:04.742Z,2.20
2022-09-06T19:34:34.013Z,2.50
2022-09-06T19:37:01.898Z,2.58
2022-09-06T19:39:36.316Z,2.33
2022-09-06T19:42:08.424Z,2.97
2022-09-06T19:44:36.329Z,2.30
2022-09-06T19:47:06.995Z,2.25
2022-09-06T19:49:35.568Z,2.85
2022-09-06T19:52:09.777Z,2.85
2022-09-06T19:54:39.211Z,3.10
2022-09-06T19:57:07.092Z,2.70
2022-09-06T19:59:36.929Z,3.55
2022-09-06T20:02:05.306Z,2.85
2022-09-06T20:04:33.690Z,3.95
2022-09-06T20:07:01.555Z,2.72
2022-09-06T20:09:29.319Z,2.60
2022-09-06T20:11:57.506Z,2.95
2022-09-06T20:14:26.693Z,2.53
2022-09-06T20:16:54.639Z,2.67
2022-09-06T20:19:23.012Z,2.50
2022-09-06T20:21:53.845Z,2.35
2022-09-06T20:24:22.147Z,2.10
2022-09-06T20:26:52.808Z,2.33
2022-09-06T20:29:20.639Z,2.30
2022-09-06T20:31:51.054Z,2.28
2022-09-06T20:34:19.321Z,2.33
2022-09-06T20:39:34.257Z,2.50
2022-09-06T20:42:02.370Z,2.75
2022-09-06T20:44:30.269Z,2.15
2022-09-06T20:46:58.586Z,2.90
2022-09-06T20:49:29.199Z,2.50
2022-09-06T20:51:57.318Z,2.20
2022-09-06T20:54:25.576Z,2.67
2022-09-06T20:56:55.450Z,2.33
2022-09-06T20:59:23.469Z,2.00
2022-09-06T21:01:51.843Z,2.20
2022-09-06T21:04:19.793Z,2.30
2022-09-06T21:06:50.017Z,2.62
2022-09-06T21:09:18.396Z,2.87
2022-09-06T21:11:46.562Z,2.53
2022-09-06T21:14:15.255Z,2.12
2022-09-06T21:16:43.796Z,2.65
2022-09-06T21:19:12.735Z,2.60
2022-09-06T21:21:41.250Z,2.70
2022-09-06T21:24:11.167Z,2.55
2022-09-06T21:26:45.433Z,2.45
2022-09-06T21:29:14.164Z,2.80
2022-09-06T21:31:42.126Z,3.03
2022-09-06T21:34:16.352Z,2.33
2022-09-06T21:36:45.642Z,2.90
2022-09-06T21:39:13.985Z,2.70
2022-09-06T21:41:43.607Z,3.30
2022-09-06T21:44:12.512Z,3.35
2022-09-06T21:46:41.083Z,3.47
2022-09-06T21:49:11.433Z,3.20
2022-09-06T21:51:40.265Z,3.42
2022-09-06T21:54:08.313Z,2.70
2022-09-06T21:56:37.859Z,3.12
2022-09-06T21:59:07.050Z,3.10
2022-09-06T22:01:36.905Z,3.00
2022-09-06T22:04:06.318Z,2.92
2022-09-06T22:06:36.847Z,2.55
2022-09-06T22:09:11.293Z,2.15
2022-09-06T22:11:41.537Z,2.97
2022-09-06T22:14:12.474Z,3.03
2022-09-06T22:16:41.383Z,2.97
2022-09-06T22:19:10.281Z,2.45
2022-09-06T22:21:38.988Z,2.30
2022-09-06T22:24:09.427Z,3.00
2022-09-06T22:26:42.046Z,2.62
2022-09-06T22:29:11.592Z,3.07
2022-09-06T22:31:40.159Z,2.67
2022-09-06T22:34:08.080Z,3.05
2022-09-06T22:36:35.925Z,3.22
2022-09-06T22:41:49.478Z,3.20
2022-09-06T22:44:18.882Z,2.78
2022-09-06T22:46:47.557Z,2.03
2022-09-06T22:49:15.414Z,2.42
2022-09-06T22:51:43.646Z,2.97
2022-09-06T22:54:11.619Z,2.53
2022-09-06T22:56:39.452Z,2.53
2022-09-06T22:59:07.700Z,2.65
2022-09-06T23:01:39.607Z,2.25
2022-09-06T23:04:09.346Z,2.33
2022-09-06T23:06:37.828Z,2.90
2022-09-06T23:09:06.986Z,2.87
2022-09-06T23:11:35.277Z,3.03
2022-09-06T23:14:03.397Z,3.03
2022-09-06T23:16:31.391Z,2.70
2022-09-06T23:18:59.671Z,2.78
2022-09-06T23:21:27.804Z,3.00
2022-09-06T23:23:57.492Z,3.03
2022-09-06T23:26:30.426Z,2.80
2022-09-06T23:28:58.928Z,2.92
2022-09-06T23:31:31.674Z,2.58
2022-09-06T23:34:01.301Z,3.20
2022-09-06T23:36:30.268Z,2.83
2022-09-06T23:38:58.619Z,2.83
2022-09-06T23:41:26.464Z,2.55
2022-09-06T23:43:55.051Z,2.72
2022-09-06T23:46:22.951Z,2.72
2022-09-06T23:48:50.955Z,2.58
2022-09-06T23:51:19.609Z,2.70
2022-09-06T23:53:47.529Z,3.25
2022-09-06T23:56:16.062Z,3.37
2022-09-06T23:58:44.283Z,2.47
